sensor_id;sensor_type;location;lat;lon;timestamp;P1;durP1;ratioP1;P2;durP2;ratioP2
58470;SDS011;44258;51.288;12.068;2023-06-14T00:02:21;5.57;;;3.15;;
58470;SDS011;44258;51.288;12.068;2023-06-14T00:05:09;7.43;;;3.20;;
58470;SDS011;44258;51.288;12.068;2023-06-14T00:07:59;6.55;;;3.33;;
58470;SDS011;44258;51.288;12.068;2023-06-14T00:10:50;7.43;;;3.28;;
58470;SDS011;44258;51.288;12.068;2023-06-14T00:13:39;8.15;;;3.10;;
58470;SDS011;44258;51.288;12.068;2023-06-14T00:16:27;5.88;;;3.20;;
58470;SDS011;44258;51.288;12.068;2023-06-14T00:19:14;6.95;;;3.22;;
58470;SDS011;44258;51.288;12.068;2023-06-14T00:22:04;5.93;;;3.25;;
58470;SDS011;44258;51.288;12.068;2023-06-14T00:24:54;6.95;;;3.47;;
58470;SDS011;44258;51.288;12.068;2023-06-14T00:27:43;7.00;;;3.22;;
58470;SDS011;44258;51.288;12.068;2023-06-14T00:30:33;5.68;;;3.30;;
58470;SDS011;44258;51.288;12.068;2023-06-14T00:33:21;5.95;;;3.03;;
58470;SDS011;44258;51.288;12.068;2023-06-14T00:36:09;5.95;;;3.00;;
58470;SDS011;44258;51.288;12.068;2023-06-14T00:38:59;6.75;;;3.33;;
58470;SDS011;44258;51.288;12.068;2023-06-14T00:41:46;6.38;;;3.22;;
58470;SDS011;44258;51.288;12.068;2023-06-14T00:44:33;5.22;;;2.90;;
58470;SDS011;44258;51.288;12.068;2023-06-14T00:47:24;5.60;;;2.97;;
58470;SDS011;44258;51.288;12.068;2023-06-14T00:50:13;6.85;;;3.08;;
58470;SDS011;44258;51.288;12.068;2023-06-14T00:53:00;6.32;;;2.95;;
58470;SDS011;44258;51.288;12.068;2023-06-14T00:55:50;8.18;;;3.10;;
58470;SDS011;44258;51.288;12.068;2023-06-14T00:58:42;6.13;;;3.15;;
58470;SDS011;44258;51.288;12.068;2023-06-14T01:01:42;6.55;;;3.20;;
58470;SDS011;44258;51.288;12.068;2023-06-14T01:04:29;8.75;;;3.50;;
58470;SDS011;44258;51.288;12.068;2023-06-14T01:07:34;7.65;;;3.53;;
58470;SDS011;44258;51.288;12.068;2023-06-14T01:10:32;9.45;;;3.47;;
58470;SDS011;44258;51.288;12.068;2023-06-14T01:13:39;8.00;;;3.58;;
58470;SDS011;44258;51.288;12.068;2023-06-14T01:16:33;6.72;;;3.25;;
58470;SDS011;44258;51.288;12.068;2023-06-14T01:19:25;8.48;;;3.60;;
58470;SDS011;44258;51.288;12.068;2023-06-14T01:22:16;6.28;;;3.42;;
58470;SDS011;44258;51.288;12.068;2023-06-14T01:25:05;6.82;;;3.35;;
58470;SDS011;44258;51.288;12.068;2023-06-14T01:27:58;10.75;;;3.60;;
58470;SDS011;44258;51.288;12.068;2023-06-14T01:30:51;7.88;;;3.38;;
58470;SDS011;44258;51.288;12.068;2023-06-14T01:33:40;5.75;;;3.20;;
58470;SDS011;44258;51.288;12.068;2023-06-14T01:36:29;6.63;;;3.38;;
58470;SDS011;44258;51.288;12.068;2023-06-14T01:39:16;7.80;;;3.75;;
58470;SDS011;44258;51.288;12.068;2023-06-14T01:42:07;7.43;;;3.75;;
58470;SDS011;44258;51.288;12.068;2023-06-14T01:44:58;9.90;;;4.03;;
58470;SDS011;44258;51.288;12.068;2023-06-14T01:47:49;6.95;;;3.83;;
58470;SDS011;44258;51.288;12.068;2023-06-14T01:50:37;8.15;;;4.00;;
58470;SDS011;44258;51.288;12.068;2023-06-14T01:53:33;7.50;;;3.78;;
58470;SDS011;44258;51.288;12.068;2023-06-14T01:59:12;7.47;;;3.58;;
58470;SDS011;44258;51.288;12.068;2023-06-14T02:01:59;9.13;;;4.35;;
58470;SDS011;44258;51.288;12.068;2023-06-14T02:04:46;8.50;;;3.83;;
58470;SDS011;44258;51.288;12.068;2023-06-14T02:07:35;7.65;;;3.90;;
58470;SDS011;44258;51.288;12.068;2023-06-14T02:10:26;7.28;;;4.05;;
58470;SDS011;44258;51.288;12.068;2023-06-14T02:13:12;7.13;;;3.80;;
58470;SDS011;44258;51.288;12.068;2023-06-14T02:16:01;8.95;;;4.00;;
58470;SDS011;44258;51.288;12.068;2023-06-14T02:18:48;7.22;;;4.43;;
58470;SDS011;44258;51.288;12.068;2023-06-14T02:21:38;7.30;;;3.67;;
58470;SDS011;44258;51.288;12.068;2023-06-14T02:24:27;9.52;;;4.30;;
58470;SDS011;44258;51.288;12.068;2023-06-14T02:27:17;9.25;;;4.22;;
58470;SDS011;44258;51.288;12.068;2023-06-14T02:30:05;8.30;;;3.90;;
58470;SDS011;44258;51.288;12.068;2023-06-14T02:32:55;8.90;;;4.40;;
58470;SDS011;44258;51.288;12.068;2023-06-14T02:35:44;6.75;;;3.90;;
58470;SDS011;44258;51.288;12.068;2023-06-14T02:38:31;8.40;;;4.10;;
58470;SDS011;44258;51.288;12.068;2023-06-14T02:41:23;8.73;;;4.25;;
58470;SDS011;44258;51.288;12.068;2023-06-14T02:44:12;8.43;;;4.00;;
58470;SDS011;44258;51.288;12.068;2023-06-14T02:47:03;9.15;;;4.10;;
58470;SDS011;44258;51.288;12.068;2023-06-14T02:50:00;7.40;;;3.83;;
58470;SDS011;44258;51.288;12.068;2023-06-14T02:52:48;9.48;;;3.75;;
58470;SDS011;44258;51.288;12.068;2023-06-14T02:55:44;8.73;;;3.92;;
58470;SDS011;44258;51.288;12.068;2023-06-14T02:58:43;6.57;;;3.58;;
58470;SDS011;44258;51.288;12.068;2023-06-14T03:01:34;6.65;;;3.50;;
58470;SDS011;44258;51.288;12.068;2023-06-14T03:04:26;7.40;;;4.15;;
58470;SDS011;44258;51.288;12.068;2023-06-14T03:07:15;8.02;;;3.63;;
58470;SDS011;44258;51.288;12.068;2023-06-14T03:10:05;8.73;;;3.58;;
58470;SDS011;44258;51.288;12.068;2023-06-14T03:12:53;10.15;;;4.07;;
58470;SDS011;44258;51.288;12.068;2023-06-14T03:15:48;7.88;;;3.50;;
58470;SDS011;44258;51.288;12.068;2023-06-14T03:18:38;10.45;;;3.47;;
58470;SDS011;44258;51.288;12.068;2023-06-14T03:21:25;10.02;;;3.70;;
58470;SDS011;44258;51.288;12.068;2023-06-14T03:24:15;7.00;;;3.55;;
58470;SDS011;44258;51.288;12.068;2023-06-14T03:27:04;8.10;;;3.45;;
58470;SDS011;44258;51.288;12.068;2023-06-14T03:29:58;7.63;;;3.67;;
58470;SDS011;44258;51.288;12.068;2023-06-14T03:32:48;7.05;;;3.25;;
58470;SDS011;44258;51.288;12.068;2023-06-14T03:35:40;7.15;;;3.28;;
58470;SDS011;44258;51.288;12.068;2023-06-14T03:41:20;7.68;;;3.35;;
58470;SDS011;44258;51.288;12.068;2023-06-14T03:44:07;7.35;;;3.78;;
58470;SDS011;44258;51.288;12.068;2023-06-14T03:46:57;6.47;;;3.45;;
58470;SDS011;44258;51.288;12.068;2023-06-14T03:49:44;8.35;;;3.80;;
58470;SDS011;44258;51.288;12.068;2023-06-14T03:52:32;8.07;;;3.85;;
58470;SDS011;44258;51.288;12.068;2023-06-14T04:00:56;7.45;;;3.50;;
58470;SDS011;44258;51.288;12.068;2023-06-14T04:03:46;6.70;;;3.47;;
58470;SDS011;44258;51.288;12.068;2023-06-14T04:06:35;6.78;;;3.25;;
58470;SDS011;44258;51.288;12.068;2023-06-14T04:09:28;7.18;;;3.72;;
58470;SDS011;44258;51.288;12.068;2023-06-14T04:12:17;7.25;;;3.85;;
58470;SDS011;44258;51.288;12.068;2023-06-14T04:15:08;7.95;;;3.70;;
58470;SDS011;44258;51.288;12.068;2023-06-14T04:17:56;7.20;;;3.50;;
58470;SDS011;44258;51.288;12.068;2023-06-14T04:20:43;7.97;;;3.70;;
58470;SDS011;44258;51.288;12.068;2023-06-14T04:23:34;7.85;;;3.30;;
58470;SDS011;44258;51.288;12.068;2023-06-14T04:26:27;7.15;;;3.47;;
58470;SDS011;44258;51.288;12.068;2023-06-14T04:29:15;10.00;;;3.75;;
58470;SDS011;44258;51.288;12.068;2023-06-14T04:32:08;8.10;;;3.80;;
58470;SDS011;44258;51.288;12.068;2023-06-14T04:34:55;7.13;;;3.63;;
58470;SDS011;44258;51.288;12.068;2023-06-14T04:37:43;7.13;;;3.83;;
58470;SDS011;44258;51.288;12.068;2023-06-14T04:40:30;6.80;;;3.40;;
58470;SDS011;44258;51.288;12.068;2023-06-14T04:43:19;7.85;;;3.60;;
58470;SDS011;44258;51.288;12.068;2023-06-14T04:46:13;7.80;;;3.60;;
58470;SDS011;44258;51.288;12.068;2023-06-14T04:49:02;10.35;;;3.92;;
58470;SDS011;44258;51.288;12.068;2023-06-14T04:51:56;8.80;;;3.90;;
58470;SDS011;44258;51.288;12.068;2023-06-14T04:54:46;9.27;;;4.10;;
58470;SDS011;44258;51.288;12.068;2023-06-14T04:57:34;6.90;;;3.45;;
58470;SDS011;44258;51.288;12.068;2023-06-14T05:00:21;6.80;;;3.72;;
58470;SDS011;44258;51.288;12.068;2023-06-14T05:03:08;10.23;;;3.47;;
58470;SDS011;44258;51.288;12.068;2023-06-14T05:06:01;6.70;;;3.40;;
58470;SDS011;44258;51.288;12.068;2023-06-14T05:08:53;9.23;;;3.65;;
58470;SDS011;44258;51.288;12.068;2023-06-14T05:11:43;7.82;;;3.70;;
58470;SDS011;44258;51.288;12.068;2023-06-14T05:14:32;9.60;;;4.00;;
58470;SDS011;44258;51.288;12.068;2023-06-14T05:17:26;7.43;;;3.78;;
58470;SDS011;44258;51.288;12.068;2023-06-14T05:20:14;8.70;;;4.38;;
58470;SDS011;44258;51.288;12.068;2023-06-14T05:23:02;8.05;;;3.95;;
58470;SDS011;44258;51.288;12.068;2023-06-14T05:25:50;10.13;;;4.13;;
58470;SDS011;44258;51.288;12.068;2023-06-14T05:28:39;9.57;;;4.05;;
58470;SDS011;44258;51.288;12.068;2023-06-14T05:31:32;9.00;;;4.40;;
58470;SDS011;44258;51.288;12.068;2023-06-14T05:34:23;7.68;;;4.20;;
58470;SDS011;44258;51.288;12.068;2023-06-14T05:39:59;9.05;;;3.90;;
58470;SDS011;44258;51.288;12.068;2023-06-14T05:42:52;8.02;;;4.07;;
58470;SDS011;44258;51.288;12.068;2023-06-14T05:45:41;8.45;;;4.40;;
58470;SDS011;44258;51.288;12.068;2023-06-14T05:48:30;8.60;;;4.60;;
58470;SDS011;44258;51.288;12.068;2023-06-14T05:51:17;9.30;;;4.75;;
58470;SDS011;44258;51.288;12.068;2023-06-14T05:54:05;10.18;;;4.53;;
58470;SDS011;44258;51.288;12.068;2023-06-14T05:56:53;9.38;;;4.30;;
58470;SDS011;44258;51.288;12.068;2023-06-14T05:59:46;8.77;;;4.53;;
58470;SDS011;44258;51.288;12.068;2023-06-14T06:02:33;8.80;;;4.40;;
58470;SDS011;44258;51.288;12.068;2023-06-14T06:05:29;9.02;;;4.72;;
58470;SDS011;44258;51.288;12.068;2023-06-14T06:08:22;9.38;;;4.80;;
58470;SDS011;44258;51.288;12.068;2023-06-14T06:14:01;8.02;;;4.10;;
58470;SDS011;44258;51.288;12.068;2023-06-14T06:16:48;9.65;;;5.32;;
58470;SDS011;44258;51.288;12.068;2023-06-14T06:22:24;8.73;;;4.00;;
58470;SDS011;44258;51.288;12.068;2023-06-14T06:27:57;10.23;;;5.13;;
58470;SDS011;44258;51.288;12.068;2023-06-14T06:30:49;8.93;;;4.72;;
58470;SDS011;44258;51.288;12.068;2023-06-14T06:33:36;12.13;;;4.53;;
58470;SDS011;44258;51.288;12.068;2023-06-14T06:36:27;8.10;;;4.50;;
58470;SDS011;44258;51.288;12.068;2023-06-14T06:39:19;8.63;;;4.80;;
58470;SDS011;44258;51.288;12.068;2023-06-14T06:42:06;11.60;;;4.88;;
58470;SDS011;44258;51.288;12.068;2023-06-14T06:44:53;8.35;;;4.38;;
58470;SDS011;44258;51.288;12.068;2023-06-14T06:50:31;9.15;;;4.85;;
58470;SDS011;44258;51.288;12.068;2023-06-14T06:53:18;10.73;;;5.28;;
58470;SDS011;44258;51.288;12.068;2023-06-14T06:58:57;9.10;;;4.55;;
58470;SDS011;44258;51.288;12.068;2023-06-14T07:01:44;8.40;;;4.50;;
58470;SDS011;44258;51.288;12.068;2023-06-14T07:04:33;11.38;;;5.10;;
58470;SDS011;44258;51.288;12.068;2023-06-14T07:07:20;9.20;;;4.60;;
58470;SDS011;44258;51.288;12.068;2023-06-14T07:12:54;8.82;;;4.53;;
58470;SDS011;44258;51.288;12.068;2023-06-14T07:15:41;7.82;;;4.10;;
58470;SDS011;44258;51.288;12.068;2023-06-14T07:18:28;8.63;;;4.63;;
58470;SDS011;44258;51.288;12.068;2023-06-14T07:21:17;9.95;;;4.30;;
58470;SDS011;44258;51.288;12.068;2023-06-14T07:24:04;8.50;;;4.40;;
58470;SDS011;44258;51.288;12.068;2023-06-14T07:26:53;7.82;;;4.13;;
58470;SDS011;44258;51.288;12.068;2023-06-14T07:29:41;10.63;;;4.25;;
58470;SDS011;44258;51.288;12.068;2023-06-14T07:32:28;10.07;;;4.43;;
58470;SDS011;44258;51.288;12.068;2023-06-14T07:35:15;9.55;;;4.50;;
58470;SDS011;44258;51.288;12.068;2023-06-14T07:38:05;8.55;;;4.43;;
58470;SDS011;44258;51.288;12.068;2023-06-14T07:40:54;8.38;;;4.50;;
58470;SDS011;44258;51.288;12.068;2023-06-14T07:43:43;10.80;;;4.30;;
58470;SDS011;44258;51.288;12.068;2023-06-14T07:46:39;7.88;;;4.40;;
58470;SDS011;44258;51.288;12.068;2023-06-14T07:49:27;10.73;;;4.40;;
58470;SDS011;44258;51.288;12.068;2023-06-14T07:52:16;7.68;;;4.00;;
58470;SDS011;44258;51.288;12.068;2023-06-14T07:55:05;8.25;;;4.60;;
58470;SDS011;44258;51.288;12.068;2023-06-14T07:58:01;8.63;;;3.90;;
58470;SDS011;44258;51.288;12.068;2023-06-14T08:00:48;7.53;;;4.30;;
58470;SDS011;44258;51.288;12.068;2023-06-14T08:03:35;7.90;;;3.50;;
58470;SDS011;44258;51.288;12.068;2023-06-14T08:06:22;7.30;;;3.80;;
58470;SDS011;44258;51.288;12.068;2023-06-14T08:09:12;8.82;;;3.90;;
58470;SDS011;44258;51.288;12.068;2023-06-14T08:12:07;9.05;;;3.85;;
58470;SDS011;44258;51.288;12.068;2023-06-14T08:14:55;10.40;;;4.93;;
58470;SDS011;44258;51.288;12.068;2023-06-14T08:17:42;8.30;;;4.75;;
58470;SDS011;44258;51.288;12.068;2023-06-14T08:20:29;8.10;;;3.92;;
58470;SDS011;44258;51.288;12.068;2023-06-14T08:23:17;7.70;;;4.00;;
58470;SDS011;44258;51.288;12.068;2023-06-14T08:26:06;7.28;;;3.42;;
58470;SDS011;44258;51.288;12.068;2023-06-14T08:28:54;8.50;;;3.63;;
58470;SDS011;44258;51.288;12.068;2023-06-14T08:31:41;7.07;;;3.55;;
58470;SDS011;44258;51.288;12.068;2023-06-14T08:34:28;6.95;;;3.20;;
58470;SDS011;44258;51.288;12.068;2023-06-14T08:37:15;7.22;;;3.45;;
58470;SDS011;44258;51.288;12.068;2023-06-14T08:40:06;7.70;;;3.80;;
58470;SDS011;44258;51.288;12.068;2023-06-14T08:43:00;7.22;;;3.60;;
58470;SDS011;44258;51.288;12.068;2023-06-14T08:45:48;8.32;;;3.95;;
58470;SDS011;44258;51.288;12.068;2023-06-14T08:48:44;6.68;;;3.28;;
58470;SDS011;44258;51.288;12.068;2023-06-14T08:51:33;8.65;;;4.30;;
58470;SDS011;44258;51.288;12.068;2023-06-14T08:54:27;8.75;;;4.18;;
58470;SDS011;44258;51.288;12.068;2023-06-14T08:57:25;9.32;;;3.72;;
58470;SDS011;44258;51.288;12.068;2023-06-14T09:00:15;7.50;;;4.20;;
58470;SDS011;44258;51.288;12.068;2023-06-14T09:03:08;9.23;;;4.50;;
58470;SDS011;44258;51.288;12.068;2023-06-14T09:05:59;11.48;;;4.55;;
58470;SDS011;44258;51.288;12.068;2023-06-14T09:08:46;7.40;;;4.00;;
58470;SDS011;44258;51.288;12.068;2023-06-14T09:11:34;10.68;;;4.03;;
58470;SDS011;44258;51.288;12.068;2023-06-14T09:14:23;7.10;;;3.63;;
58470;SDS011;44258;51.288;12.068;2023-06-14T09:17:17;9.73;;;3.83;;
58470;SDS011;44258;51.288;12.068;2023-06-14T09:20:10;8.50;;;4.88;;
58470;SDS011;44258;51.288;12.068;2023-06-14T09:22:59;9.05;;;3.97;;
58470;SDS011;44258;51.288;12.068;2023-06-14T09:25:53;7.68;;;3.90;;
58470;SDS011;44258;51.288;12.068;2023-06-14T09:28:41;7.13;;;4.13;;
58470;SDS011;44258;51.288;12.068;2023-06-14T09:31:29;8.38;;;3.97;;
58470;SDS011;44258;51.288;12.068;2023-06-14T09:34:17;8.20;;;4.28;;
58470;SDS011;44258;51.288;12.068;2023-06-14T09:37:06;7.47;;;4.03;;
58470;SDS011;44258;51.288;12.068;2023-06-14T09:39:53;9.85;;;4.70;;
58470;SDS011;44258;51.288;12.068;2023-06-14T09:42:43;9.32;;;4.47;;
58470;SDS011;44258;51.288;12.068;2023-06-14T09:45:30;7.53;;;3.83;;
58470;SDS011;44258;51.288;12.068;2023-06-14T09:48:20;9.02;;;4.10;;
58470;SDS011;44258;51.288;12.068;2023-06-14T09:51:08;7.60;;;4.38;;
58470;SDS011;44258;51.288;12.068;2023-06-14T09:53:58;10.73;;;4.88;;
58470;SDS011;44258;51.288;12.068;2023-06-14T09:56:47;13.70;;;5.65;;
58470;SDS011;44258;51.288;12.068;2023-06-14T09:59:41;9.20;;;4.40;;
58470;SDS011;44258;51.288;12.068;2023-06-14T10:02:31;7.25;;;3.67;;
58470;SDS011;44258;51.288;12.068;2023-06-14T10:05:27;8.65;;;4.05;;
58470;SDS011;44258;51.288;12.068;2023-06-14T10:08:16;8.85;;;3.53;;
58470;SDS011;44258;51.288;12.068;2023-06-14T10:11:06;7.93;;;3.40;;
58470;SDS011;44258;51.288;12.068;2023-06-14T10:13:57;7.55;;;3.90;;
58470;SDS011;44258;51.288;12.068;2023-06-14T10:16:49;6.03;;;3.60;;
58470;SDS011;44258;51.288;12.068;2023-06-14T10:19:44;9.05;;;3.80;;
58470;SDS011;44258;51.288;12.068;2023-06-14T10:22:38;6.25;;;3.33;;
58470;SDS011;44258;51.288;12.068;2023-06-14T10:25:34;9.50;;;3.35;;
58470;SDS011;44258;51.288;12.068;2023-06-14T10:28:25;6.47;;;3.03;;
58470;SDS011;44258;51.288;12.068;2023-06-14T10:31:17;7.28;;;3.35;;
58470;SDS011;44258;51.288;12.068;2023-06-14T10:34:04;6.88;;;3.10;;
58470;SDS011;44258;51.288;12.068;2023-06-14T10:39:59;5.30;;;2.80;;
58470;SDS011;44258;51.288;12.068;2023-06-14T10:42:51;4.75;;;2.78;;
58470;SDS011;44258;51.288;12.068;2023-06-14T10:45:40;5.68;;;3.17;;
58470;SDS011;44258;51.288;12.068;2023-06-14T10:49:03;4.70;;;2.55;;
58470;SDS011;44258;51.288;12.068;2023-06-14T10:51:53;5.65;;;3.13;;
58470;SDS011;44258;51.288;12.068;2023-06-14T10:54:58;6.22;;;2.60;;
58470;SDS011;44258;51.288;12.068;2023-06-14T10:57:54;8.70;;;3.03;;
58470;SDS011;44258;51.288;12.068;2023-06-14T11:00:45;6.75;;;3.20;;
58470;SDS011;44258;51.288;12.068;2023-06-14T11:03:43;7.13;;;3.00;;
58470;SDS011;44258;51.288;12.068;2023-06-14T11:06:45;5.88;;;2.67;;
58470;SDS011;44258;51.288;12.068;2023-06-14T11:09:42;7.43;;;2.97;;
58470;SDS011;44258;51.288;12.068;2023-06-14T11:12:48;5.55;;;2.90;;
58470;SDS011;44258;51.288;12.068;2023-06-14T11:15:36;6.03;;;2.83;;
58470;SDS011;44258;51.288;12.068;2023-06-14T11:18:28;5.95;;;2.75;;
58470;SDS011;44258;51.288;12.068;2023-06-14T11:21:27;5.75;;;3.00;;
58470;SDS011;44258;51.288;12.068;2023-06-14T11:24:19;5.00;;;2.40;;
58470;SDS011;44258;51.288;12.068;2023-06-14T11:27:07;5.72;;;2.50;;
58470;SDS011;44258;51.288;12.068;2023-06-14T11:29:54;5.03;;;2.53;;
58470;SDS011;44258;51.288;12.068;2023-06-14T11:32:45;6.55;;;2.55;;
58470;SDS011;44258;51.288;12.068;2023-06-14T11:35:34;5.15;;;2.38;;
58470;SDS011;44258;51.288;12.068;2023-06-14T11:38:27;3.58;;;1.90;;
58470;SDS011;44258;51.288;12.068;2023-06-14T11:41:14;5.45;;;2.22;;
58470;SDS011;44258;51.288;12.068;2023-06-14T11:44:05;6.32;;;2.72;;
58470;SDS011;44258;51.288;12.068;2023-06-14T11:46:52;4.35;;;2.35;;
58470;SDS011;44258;51.288;12.068;2023-06-14T11:49:39;5.30;;;2.25;;
58470;SDS011;44258;51.288;12.068;2023-06-14T11:52:28;6.03;;;2.83;;
58470;SDS011;44258;51.288;12.068;2023-06-14T11:55:18;4.72;;;2.33;;
58470;SDS011;44258;51.288;12.068;2023-06-14T11:58:05;5.10;;;2.45;;
58470;SDS011;44258;51.288;12.068;2023-06-14T12:00:53;8.65;;;2.85;;
58470;SDS011;44258;51.288;12.068;2023-06-14T12:03:53;5.82;;;2.70;;
58470;SDS011;44258;51.288;12.068;2023-06-14T12:06:40;4.68;;;2.67;;
58470;SDS011;44258;51.288;12.068;2023-06-14T12:09:31;5.60;;;2.85;;
58470;SDS011;44258;51.288;12.068;2023-06-14T12:12:18;5.55;;;2.72;;
58470;SDS011;44258;51.288;12.068;2023-06-14T12:15:13;5.38;;;2.60;;
58470;SDS011;44258;51.288;12.068;2023-06-14T12:18:04;5.18;;;2.80;;
58470;SDS011;44258;51.288;12.068;2023-06-14T12:20:58;5.35;;;2.58;;
58470;SDS011;44258;51.288;12.068;2023-06-14T12:23:48;5.32;;;2.50;;
58470;SDS011;44258;51.288;12.068;2023-06-14T12:26:40;7.50;;;2.70;;
58470;SDS011;44258;51.288;12.068;2023-06-14T12:29:27;6.18;;;2.40;;
58470;SDS011;44258;51.288;12.068;2023-06-14T12:32:14;3.38;;;2.03;;
58470;SDS011;44258;51.288;12.068;2023-06-14T12:35:01;3.65;;;2.00;;
58470;SDS011;44258;51.288;12.068;2023-06-14T12:37:48;8.20;;;2.40;;
58470;SDS011;44258;51.288;12.068;2023-06-14T12:40:35;5.68;;;2.40;;
58470;SDS011;44258;51.288;12.068;2023-06-14T12:43:24;5.20;;;2.65;;
58470;SDS011;44258;51.288;12.068;2023-06-14T12:46:11;4.95;;;2.58;;
58470;SDS011;44258;51.288;12.068;2023-06-14T12:49:01;4.68;;;2.20;;
58470;SDS011;44258;51.288;12.068;2023-06-14T12:51:48;5.50;;;3.40;;
58470;SDS011;44258;51.288;12.068;2023-06-14T12:54:36;3.90;;;2.00;;
58470;SDS011;44258;51.288;12.068;2023-06-14T12:57:24;6.25;;;2.70;;
58470;SDS011;44258;51.288;12.068;2023-06-14T13:00:17;5.13;;;1.95;;
58470;SDS011;44258;51.288;12.068;2023-06-14T13:03:06;3.53;;;2.10;;
58470;SDS011;44258;51.288;12.068;2023-06-14T13:05:53;3.65;;;2.08;;
58470;SDS011;44258;51.288;12.068;2023-06-14T13:08:40;4.00;;;2.40;;
58470;SDS011;44258;51.288;12.068;2023-06-14T13:11:27;4.15;;;2.25;;
58470;SDS011;44258;51.288;12.068;2023-06-14T13:14:17;5.95;;;2.58;;
58470;SDS011;44258;51.288;12.068;2023-06-14T13:17:11;6.40;;;2.80;;
58470;SDS011;44258;51.288;12.068;2023-06-14T13:19:58;4.70;;;2.47;;
58470;SDS011;44258;51.288;12.068;2023-06-14T13:22:49;8.13;;;3.60;;
58470;SDS011;44258;51.288;12.068;2023-06-14T13:25:40;6.30;;;2.90;;
58470;SDS011;44258;51.288;12.068;2023-06-14T13:28:27;6.18;;;3.50;;
58470;SDS011;44258;51.288;12.068;2023-06-14T13:31:15;5.35;;;2.65;;
58470;SDS011;44258;51.288;12.068;2023-06-14T13:34:08;6.50;;;3.05;;
58470;SDS011;44258;51.288;12.068;2023-06-14T13:36:57;5.78;;;2.97;;
58470;SDS011;44258;51.288;12.068;2023-06-14T13:39:44;6.57;;;3.08;;
58470;SDS011;44258;51.288;12.068;2023-06-14T13:42:31;7.88;;;3.40;;
58470;SDS011;44258;51.288;12.068;2023-06-14T13:45:21;6.20;;;2.80;;
58470;SDS011;44258;51.288;12.068;2023-06-14T13:48:10;6.55;;;2.85;;
58470;SDS011;44258;51.288;12.068;2023-06-14T13:51:11;7.22;;;3.20;;
58470;SDS011;44258;51.288;12.068;2023-06-14T13:54:01;5.70;;;2.50;;
58470;SDS011;44258;51.288;12.068;2023-06-14T13:56:48;6.28;;;3.35;;
58470;SDS011;44258;51.288;12.068;2023-06-14T13:59:39;9.38;;;3.42;;
58470;SDS011;44258;51.288;12.068;2023-06-14T14:02:26;7.80;;;3.47;;
58470;SDS011;44258;51.288;12.068;2023-06-14T14:05:16;8.15;;;3.58;;
58470;SDS011;44258;51.288;12.068;2023-06-14T14:08:04;6.50;;;3.33;;
58470;SDS011;44258;51.288;12.068;2023-06-14T14:10:51;6.03;;;3.20;;
58470;SDS011;44258;51.288;12.068;2023-06-14T14:13:38;5.75;;;3.35;;
58470;SDS011;44258;51.288;12.068;2023-06-14T14:16:27;9.75;;;3.70;;
58470;SDS011;44258;51.288;12.068;2023-06-14T14:19:15;6.88;;;3.25;;
58470;SDS011;44258;51.288;12.068;2023-06-14T14:22:04;6.78;;;3.53;;
58470;SDS011;44258;51.288;12.068;2023-06-14T14:24:52;6.70;;;3.45;;
58470;SDS011;44258;51.288;12.068;2023-06-14T14:27:39;7.50;;;3.53;;
58470;SDS011;44258;51.288;12.068;2023-06-14T14:30:27;7.13;;;3.60;;
58470;SDS011;44258;51.288;12.068;2023-06-14T14:33:15;7.80;;;3.90;;
58470;SDS011;44258;51.288;12.068;2023-06-14T14:36:03;10.63;;;3.85;;
58470;SDS011;44258;51.288;12.068;2023-06-14T14:38:52;7.25;;;3.70;;
58470;SDS011;44258;51.288;12.068;2023-06-14T14:41:40;6.90;;;3.55;;
58470;SDS011;44258;51.288;12.068;2023-06-14T14:44:27;8.45;;;4.07;;
58470;SDS011;44258;51.288;12.068;2023-06-14T14:47:14;9.68;;;3.60;;
58470;SDS011;44258;51.288;12.068;2023-06-14T14:50:01;8.40;;;3.83;;
58470;SDS011;44258;51.288;12.068;2023-06-14T14:52:48;7.82;;;3.22;;
58470;SDS011;44258;51.288;12.068;2023-06-14T14:55:35;7.85;;;3.97;;
58470;SDS011;44258;51.288;12.068;2023-06-14T14:58:29;5.95;;;3.47;;
58470;SDS011;44258;51.288;12.068;2023-06-14T15:01:18;6.60;;;3.65;;
58470;SDS011;44258;51.288;12.068;2023-06-14T15:04:05;9.00;;;3.67;;
58470;SDS011;44258;51.288;12.068;2023-06-14T15:06:55;7.07;;;3.50;;
58470;SDS011;44258;51.288;12.068;2023-06-14T15:09:41;6.35;;;3.38;;
58470;SDS011;44258;51.288;12.068;2023-06-14T15:12:28;5.95;;;3.10;;
58470;SDS011;44258;51.288;12.068;2023-06-14T15:15:17;6.07;;;3.22;;
58470;SDS011;44258;51.288;12.068;2023-06-14T15:18:03;5.50;;;3.22;;
58470;SDS011;44258;51.288;12.068;2023-06-14T15:20:50;7.10;;;3.22;;
58470;SDS011;44258;51.288;12.068;2023-06-14T15:23:37;6.63;;;3.53;;
58470;SDS011;44258;51.288;12.068;2023-06-14T15:26:24;5.55;;;2.85;;
58470;SDS011;44258;51.288;12.068;2023-06-14T15:29:11;6.75;;;3.08;;
58470;SDS011;44258;51.288;12.068;2023-06-14T15:31:59;9.82;;;4.03;;
58470;SDS011;44258;51.288;12.068;2023-06-14T15:34:50;6.40;;;3.42;;
58470;SDS011;44258;51.288;12.068;2023-06-14T15:37:38;6.18;;;3.20;;
58470;SDS011;44258;51.288;12.068;2023-06-14T15:40:25;8.00;;;3.00;;
58470;SDS011;44258;51.288;12.068;2023-06-14T15:43:13;6.93;;;3.15;;
58470;SDS011;44258;51.288;12.068;2023-06-14T15:46:00;7.43;;;3.13;;
58470;SDS011;44258;51.288;12.068;2023-06-14T15:48:54;5.95;;;3.20;;
58470;SDS011;44258;51.288;12.068;2023-06-14T15:51:42;6.25;;;3.40;;
58470;SDS011;44258;51.288;12.068;2023-06-14T15:54:33;7.57;;;3.45;;
58470;SDS011;44258;51.288;12.068;2023-06-14T15:57:24;5.70;;;2.97;;
58470;SDS011;44258;51.288;12.068;2023-06-14T16:00:15;7.90;;;2.80;;
58470;SDS011;44258;51.288;12.068;2023-06-14T16:03:06;4.35;;;2.60;;
58470;SDS011;44258;51.288;12.068;2023-06-14T16:05:54;5.40;;;2.88;;
58470;SDS011;44258;51.288;12.068;2023-06-14T16:08:41;6.30;;;3.10;;
58470;SDS011;44258;51.288;12.068;2023-06-14T16:11:28;7.03;;;2.95;;
58470;SDS011;44258;51.288;12.068;2023-06-14T16:14:17;5.07;;;2.80;;
58470;SDS011;44258;51.288;12.068;2023-06-14T16:17:05;6.40;;;3.05;;
58470;SDS011;44258;51.288;12.068;2023-06-14T16:19:52;6.25;;;3.25;;
58470;SDS011;44258;51.288;12.068;2023-06-14T16:22:40;7.03;;;3.30;;
58470;SDS011;44258;51.288;12.068;2023-06-14T16:25:27;5.25;;;2.90;;
58470;SDS011;44258;51.288;12.068;2023-06-14T16:28:14;8.10;;;3.40;;
58470;SDS011;44258;51.288;12.068;2023-06-14T16:31:01;4.97;;;2.47;;
58470;SDS011;44258;51.288;12.068;2023-06-14T16:33:48;6.50;;;3.17;;
58470;SDS011;44258;51.288;12.068;2023-06-14T16:36:39;8.45;;;3.28;;
58470;SDS011;44258;51.288;12.068;2023-06-14T16:39:27;6.05;;;3.05;;
58470;SDS011;44258;51.288;12.068;2023-06-14T16:42:14;9.13;;;3.33;;
58470;SDS011;44258;51.288;12.068;2023-06-14T16:45:03;7.63;;;3.33;;
58470;SDS011;44258;51.288;12.068;2023-06-14T16:47:50;6.90;;;3.28;;
58470;SDS011;44258;51.288;12.068;2023-06-14T16:50:41;9.00;;;3.45;;
58470;SDS011;44258;51.288;12.068;2023-06-14T16:53:28;7.30;;;3.55;;
58470;SDS011;44258;51.288;12.068;2023-06-14T16:56:17;7.78;;;3.28;;
58470;SDS011;44258;51.288;12.068;2023-06-14T16:59:04;6.25;;;3.03;;
58470;SDS011;44258;51.288;12.068;2023-06-14T17:01:51;5.53;;;2.88;;
58470;SDS011;44258;51.288;12.068;2023-06-14T17:04:38;8.45;;;3.20;;
58470;SDS011;44258;51.288;12.068;2023-06-14T17:07:25;7.78;;;3.67;;
58470;SDS011;44258;51.288;12.068;2023-06-14T17:10:12;9.68;;;3.50;;
58470;SDS011;44258;51.288;12.068;2023-06-14T17:13:00;7.82;;;3.58;;
58470;SDS011;44258;51.288;12.068;2023-06-14T17:15:47;6.65;;;2.90;;
58470;SDS011;44258;51.288;12.068;2023-06-14T17:18:34;7.05;;;3.40;;
58470;SDS011;44258;51.288;12.068;2023-06-14T17:21:22;7.00;;;3.60;;